This is the latest recevied telemetry packets stored in our database for station/object OE5RGM-73. If no packets are shown the sender has not sent any telemetry packets the latest 10 day(s).
Telemetry packets is used to share measurements like repeteater parameters, battery voltage, radiation readings (or any other measurements).
| Time | Press* | Temp.in* | Hum* | eCO2* | Temp.out* |
|---|---|---|---|---|---|
| 1777900553 | 0 hPa | 27.1 C deg | 29.1 % | 431 ppm | 35.3 C deg |
| 1777898772 | 0 hPa | 26.9 C deg | 30.6 % | 424 ppm | 33.4 C deg |
| 1777889669 | 0 hPa | 22.9 C deg | 42.6 % | 430 ppm | 22.7 C deg |
| 1777877017 | 0 hPa | 16.6 C deg | 51.1 % | 436 ppm | 15.1 C deg |
| 1777873360 | 0 hPa | 16.1 C deg | 49.5 % | 435 ppm | 14.6 C deg |
| 1777869756 | 0 hPa | 15 C deg | 52.4 % | 438 ppm | 12.9 C deg |
| 1777864272 | 0 hPa | 16.2 C deg | 49.5 % | 443 ppm | 13.3 C deg |
| 1777835239 | 0 hPa | 20.9 C deg | 36.5 % | 428 ppm | 18.4 C deg |
| 1777798928 | 0 hPa | 22 C deg | 34.3 % | 431 ppm | 20.5 C deg |
| 1777773521 | 0 hPa | 15.7 C deg | 37.2 % | 437 ppm | 12.6 C deg |
| 1777746319 | 0 hPa | 19.2 C deg | 24.7 % | 444 ppm | 16.4 C deg |
| 1777719070 | 0 hPa | 23.7 C deg | 27.9 % | 417 ppm | 27.8 C deg |
| 1777679138 | 0 hPa | 12.3 C deg | 48.3 % | 434 ppm | 8.7 C deg |
| 1777644655 | 0 hPa | 21 C deg | 32 % | 425 ppm | 25.8 C deg |
| 1777639183 | 0 hPa | 22.2 C deg | 29.4 % | 415 ppm | 30.1 C deg |
| 1777633760 | 0 hPa | 17.7 C deg | 35.5 % | 429 ppm | 22.9 C deg |
| 1777622867 | 0 hPa | 12.6 C deg | 35.5 % | 436 ppm | 11.4 C deg |
| 1777621092 | 0 hPa | 12.2 C deg | 35.6 % | 440 ppm | 10.9 C deg |
| 1777613813 | 0 hPa | 9.5 C deg | 36.4 % | 430 ppm | 6.9 C deg |
| 1777612035 | 0 hPa | 8.1 C deg | 39 % | 418 ppm | 5 C deg |
| 1777608377 | 0 hPa | 6.9 C deg | 40.8 % | 431 ppm | 3.1 C deg |
| 1777606549 | 0 hPa | 6.6 C deg | 42.3 % | 432 ppm | 3.2 C deg |
| 1777602919 | 0 hPa | 6.2 C deg | 46.4 % | 430 ppm | 3.1 C deg |
| 1777601129 | 0 hPa | 6.1 C deg | 46.5 % | 430 ppm | 2.6 C deg |
| 1777599310 | 0 hPa | 6.3 C deg | 45.1 % | 430 ppm | 2.6 C deg |